Time;durP1;ratioP1;P1;durP2;ratioP2;P2;SDS_P1;SDS_P2;PMS_P1;PMS_P2;Temp;Humidity;BMP_temperature;BMP_pressure;BME280_temperature;BME280_humidity;BME280_pressure;Samples;Min_cycle;Max_cycle;Signal;HPM_P1;HPM_P2
2023/10/26 00:00:29;;;;;;;14.55;13.15;;;;;;;10.21;100.00;94521.16;5087454;28;20504;-64
2023/10/26 00:02:55;;;;;;;14.43;13.05;;;;;;;10.21;100.00;94529.84;5086399;28;20039;-64
2023/10/26 00:05:20;;;;;;;13.93;12.48;;;;;;;10.20;100.00;94525.59;5093948;28;20028;-64
2023/10/26 00:07:45;;;;;;;13.10;12.07;;;;;;;10.19;100.00;94523.94;5078929;28;20028;-64
2023/10/26 00:10:11;;;;;;;10.70;9.80;;;;;;;10.17;100.00;94520.66;5088156;28;20040;-64
2023/10/26 00:12:36;;;;;;;10.45;9.55;;;;;;;10.17;100.00;94525.94;5088662;28;20036;-64
2023/10/26 00:15:02;;;;;;;8.85;8.15;;;;;;;10.20;100.00;94544.00;5088944;28;20034;-64
2023/10/26 00:17:27;;;;;;;10.65;9.85;;;;;;;10.21;100.00;94548.28;5059549;28;20024;-64
2023/10/26 00:19:53;;;;;;;11.45;10.45;;;;;;;10.21;100.00;94548.28;5087115;28;20712;-64
2023/10/26 00:22:20;;;;;;;10.45;9.65;;;;;;;10.20;100.00;94566.88;5080477;28;20743;-64
2023/10/26 00:24:45;;;;;;;11.38;10.50;;;;;;;10.20;100.00;94570.31;5082666;28;20082;-64
2023/10/26 00:27:11;;;;;;;10.68;9.77;;;;;;;10.20;100.00;94567.66;5087180;28;20024;-63
2023/10/26 00:29:36;;;;;;;10.57;9.77;;;;;;;10.20;100.00;94572.94;5082858;28;20052;-63
2023/10/26 00:32:04;;;;;;;10.10;9.30;;;;;;;10.22;100.00;94576.22;5083224;28;20028;-64
2023/10/26 00:34:29;;;;;;;10.70;9.90;;;;;;;10.24;100.00;94568.16;5087044;28;20028;-64
2023/10/26 00:36:55;;;;;;;10.70;9.82;;;;;;;10.25;100.00;94570.63;5083716;28;20439;-64
2023/10/26 00:39:20;;;;;;;9.75;9.00;;;;;;;10.22;100.00;94578.84;5087173;28;20051;-64
2023/10/26 00:41:50;;;;;;;10.70;9.73;;;;;;;10.22;100.00;94586.72;5086248;28;20042;-64
2023/10/26 00:44:15;;;;;;;13.43;12.23;;;;;;;10.21;100.00;94584.28;5092027;28;20061;-64
2023/10/26 00:46:41;;;;;;;11.75;10.95;;;;;;;10.17;100.00;94571.47;5086514;28;20379;-64
2023/10/26 00:49:07;;;;;;;10.75;9.85;;;;;;;10.18;100.00;94570.47;5084023;28;20429;-64
2023/10/26 00:51:32;;;;;;;10.60;9.80;;;;;;;10.23;100.00;94577.06;5090758;28;20024;-64
2023/10/26 00:53:58;;;;;;;11.27;10.20;;;;;;;10.21;100.00;94595.63;5090918;28;20089;-64
2023/10/26 00:56:25;;;;;;;11.75;10.90;;;;;;;10.18;100.00;94609.09;5094296;28;20453;-64
2023/10/26 00:58:51;;;;;;;12.00;11.00;;;;;;;10.16;100.00;94609.25;5087733;28;20038;-64
2023/10/26 01:01:17;;;;;;;10.68;9.90;;;;;;;10.15;100.00;94602.34;5089131;28;20048;-64
2023/10/26 01:03:45;;;;;;;11.00;10.20;;;;;;;10.13;100.00;94593.81;5084406;28;20480;-65
2023/10/26 01:06:11;;;;;;;9.45;8.77;;;;;;;10.12;100.00;94592.16;5086116;28;20023;-64
2023/10/26 01:08:36;;;;;;;10.13;9.32;;;;;;;10.22;100.00;94584.09;5081227;28;20501;-64
2023/10/26 01:11:02;;;;;;;10.35;9.52;;;;;;;10.14;100.00;94571.78;5084418;28;20059;-64
2023/10/26 01:13:30;;;;;;;9.77;9.07;;;;;;;10.11;100.00;94566.84;5077604;28;20053;-64
2023/10/26 01:15:56;;;;;;;9.55;8.95;;;;;;;10.09;100.00;94562.78;5091861;28;20091;-64
2023/10/26 01:18:21;;;;;;;9.80;9.10;;;;;;;10.09;100.00;94560.16;5089070;28;20052;-64
2023/10/26 01:20:47;;;;;;;9.88;9.18;;;;;;;10.12;100.00;94559.81;5088633;28;20022;-64
2023/10/26 01:23:13;;;;;;;9.18;8.38;;;;;;;10.17;100.00;94560.13;5086392;28;20036;-64
2023/10/26 01:25:39;;;;;;;8.63;8.02;;;;;;;10.15;100.00;94548.94;5082594;28;20500;-64
2023/10/26 01:28:06;;;;;;;8.32;7.72;;;;;;;10.10;100.00;94546.81;5089550;28;20539;-64
2023/10/26 01:30:32;;;;;;;7.88;7.38;;;;;;;10.08;100.00;94542.72;5085708;28;20036;-64
2023/10/26 01:32:58;;;;;;;8.18;7.47;;;;;;;10.09;100.00;94558.31;5084508;28;20544;-64
2023/10/26 01:35:24;;;;;;;8.85;8.18;;;;;;;10.16;100.00;94575.06;5086891;28;20111;-64
2023/10/26 01:37:49;;;;;;;8.93;8.32;;;;;;;10.13;100.00;94588.56;5083508;28;20028;-64
2023/10/26 01:40:14;;;;;;;8.98;8.38;;;;;;;10.13;100.00;94606.16;5075593;28;20043;-64
2023/10/26 01:42:40;;;;;;;9.50;8.80;;;;;;;10.15;100.00;94599.72;5085561;28;20141;-64
2023/10/26 01:45:06;;;;;;;10.45;9.65;;;;;;;10.16;100.00;94603.19;5085889;28;20042;-65
2023/10/26 01:47:31;;;;;;;11.15;10.35;;;;;;;10.14;100.00;94600.72;5080256;28;20027;-64
2023/10/26 01:49:56;;;;;;;12.65;11.70;;;;;;;10.27;100.00;94605.47;5089860;28;20063;-64
2023/10/26 01:52:22;;;;;;;11.63;10.70;;;;;;;10.22;100.00;94612.22;5085208;28;20366;-64
2023/10/26 01:54:49;;;;;;;11.63;10.82;;;;;;;10.14;100.00;94616.50;5082423;28;20055;-65
2023/10/26 01:57:14;;;;;;;10.32;9.63;;;;;;;10.14;100.00;94615.69;5078486;28;20646;-64
2023/10/26 01:59:40;;;;;;;8.30;7.68;;;;;;;10.09;100.00;94624.06;5085332;28;20090;-64
2023/10/26 02:02:05;;;;;;;7.47;7.05;;;;;;;10.08;100.00;94627.69;5083318;28;20567;-64
2023/10/26 02:04:30;;;;;;;6.50;6.10;;;;;;;10.14;100.00;94623.56;5085899;28;20115;-65
2023/10/26 02:06:56;;;;;;;5.80;5.50;;;;;;;10.13;100.00;94617.47;5090977;28;20078;-64
2023/10/26 02:09:21;;;;;;;6.40;6.00;;;;;;;10.19;100.00;94616.00;5089748;28;20463;-64
2023/10/26 02:11:47;;;;;;;5.82;5.53;;;;;;;10.31;100.00;94611.22;5092432;28;20071;-64
2023/10/26 02:14:12;;;;;;;5.80;5.50;;;;;;;10.30;100.00;94610.41;5094863;28;20605;-64
2023/10/26 02:16:38;;;;;;;5.68;5.28;;;;;;;10.21;100.00;94621.91;5088918;28;20157;-64
2023/10/26 02:19:03;;;;;;;5.50;5.20;;;;;;;10.17;100.00;94625.88;5087031;28;20089;-63
2023/10/26 02:21:29;;;;;;;5.43;5.00;;;;;;;10.16;100.00;94626.84;5089200;28;20024;-64
2023/10/26 02:23:54;;;;;;;5.25;4.85;;;;;;;10.20;100.00;94638.69;5094160;28;20028;-64
2023/10/26 02:26:19;;;;;;;4.88;4.57;;;;;;;10.21;100.00;94650.03;5086897;28;20034;-64
2023/10/26 02:28:45;;;;;;;5.28;4.97;;;;;;;10.18;100.00;94648.56;5086172;28;20153;-64
2023/10/26 02:31:10;;;;;;;5.00;4.68;;;;;;;10.18;100.00;94651.19;5096553;28;20504;-64
2023/10/26 02:33:36;;;;;;;5.30;4.85;;;;;;;10.21;100.00;94650.03;5089073;28;20555;-64
2023/10/26 02:36:01;;;;;;;5.30;4.95;;;;;;;10.24;100.00;94642.63;5092775;28;20492;-64
2023/10/26 02:38:26;;;;;;;4.43;3.83;;;;;;;10.25;100.00;94638.19;5087441;28;20148;-64
2023/10/26 02:40:52;;;;;;;3.22;3.13;;;;;;;10.28;100.00;94638.69;5080644;28;20020;-64
2023/10/26 02:43:19;;;;;;;3.42;3.22;;;;;;;10.32;100.00;94631.28;5089313;28;20400;-64
2023/10/26 02:45:44;;;;;;;2.83;2.63;;;;;;;10.34;100.00;94636.38;5086607;28;20024;-64
2023/10/26 02:48:10;;;;;;;3.90;3.70;;;;;;;10.36;100.00;94647.56;5088293;28;20028;-64
2023/10/26 02:50:36;;;;;;;4.40;4.10;;;;;;;10.38;100.00;94659.53;5086937;28;20155;-64
2023/10/26 02:53:01;;;;;;;4.65;4.25;;;;;;;10.44;100.00;94658.09;5089203;28;20034;-64
2023/10/26 02:55:27;;;;;;;5.55;5.05;;;;;;;10.50;100.00;94646.09;5088360;28;20054;-65
2023/10/26 02:57:52;;;;;;;6.50;2.65;;;;;;;10.52;100.00;94633.59;5093171;28;20024;-64
2023/10/26 03:00:17;;;;;;;6.63;4.70;;;;;;;10.55;100.00;94652.50;5084558;28;20035;-64
2023/10/26 03:02:43;;;;;;;3.40;3.10;;;;;;;10.56;100.00;94667.31;5086902;28;20094;-64
2023/10/26 03:05:09;;;;;;;3.40;3.20;;;;;;;10.56;100.00;94658.56;5087815;28;20029;-64
2023/10/26 03:07:34;;;;;;;3.33;3.00;;;;;;;10.55;100.00;94670.09;5082545;28;20019;-64
2023/10/26 03:10:00;;;;;;;2.95;2.65;;;;;;;10.54;100.00;94671.91;5087835;28;20114;-64
2023/10/26 03:12:25;;;;;;;4.40;3.97;;;;;;;10.51;100.00;94682.78;5089846;28;20035;-64
2023/10/26 03:14:50;;;;;;;4.47;4.28;;;;;;;10.49;100.00;94684.72;5083034;28;20469;-64
2023/10/26 03:17:16;;;;;;;4.28;3.97;;;;;;;10.53;100.00;94688.69;5086578;28;20103;-64
2023/10/26 03:19:42;;;;;;;4.32;4.03;;;;;;;10.54;100.00;94692.97;5080831;28;20160;-64
2023/10/26 03:22:09;;;;;;;4.50;4.20;;;;;;;10.49;100.00;94690.00;5085742;28;20027;-64
2023/10/26 03:24:34;;;;;;;3.88;3.67;;;;;;;10.38;100.00;94698.19;5085404;28;20054;-64
2023/10/26 03:27:00;;;;;;;4.80;4.60;;;;;;;10.29;100.00;94706.09;5082876;28;20060;-64
2023/10/26 03:29:25;;;;;;;5.40;5.10;;;;;;;10.23;100.00;94704.13;5089041;28;20024;-64
2023/10/26 03:31:51;;;;;;;5.45;5.15;;;;;;;10.21;100.00;94716.59;5084333;28;20067;-64
2023/10/26 03:34:17;;;;;;;6.13;5.82;;;;;;;10.30;100.00;94720.91;5091154;28;20062;-64
2023/10/26 03:36:42;;;;;;;6.40;6.00;;;;;;;10.17;100.00;94710.03;5087028;28;20024;-64
2023/10/26 03:39:08;;;;;;;7.05;6.55;;;;;;;10.10;100.00;94704.59;5089182;28;20027;-63
2023/10/26 03:41:33;;;;;;;7.40;6.90;;;;;;;10.23;100.00;94703.31;5087202;28;20028;-64
2023/10/26 03:43:59;;;;;;;6.88;6.47;;;;;;;10.20;100.00;94688.66;5087023;28;20081;-64
2023/10/26 03:46:24;;;;;;;7.97;7.38;;;;;;;10.09;100.00;94691.63;5083888;28;20040;-64
2023/10/26 03:48:50;;;;;;;8.05;7.53;;;;;;;10.16;100.00;94692.63;5087468;28;20157;-64
2023/10/26 03:51:16;;;;;;;8.52;7.97;;;;;;;10.07;100.00;94678.63;5080001;28;20031;-64
2023/10/26 03:53:41;;;;;;;9.05;8.45;;;;;;;10.06;100.00;94673.53;5079051;28;20020;-64
2023/10/26 03:56:07;;;;;;;8.23;7.72;;;;;;;10.04;100.00;94684.22;5082779;28;20492;-64
2023/10/26 03:58:32;;;;;;;11.13;10.32;;;;;;;10.04;100.00;94694.75;5092350;28;20081;-64
2023/10/26 04:00:58;;;;;;;8.68;8.05;;;;;;;10.04;100.00;94684.22;5084838;28;20388;-64
2023/10/26 04:03:24;;;;;;;8.00;7.47;;;;;;;10.08;100.00;94697.88;5089077;28;20038;-64
2023/10/26 04:05:49;;;;;;;8.10;7.60;;;;;;;10.08;100.00;94705.78;5086786;28;20024;-64
2023/10/26 04:08:15;;;;;;;7.00;6.60;;;;;;;10.11;100.00;94711.50;5087858;28;21033;-64
2023/10/26 04:10:43;;;;;;;7.00;6.60;;;;;;;10.10;100.00;94714.31;5084155;28;20016;-63
2023/10/26 04:13:09;;;;;;;7.13;6.70;;;;;;;10.07;100.00;94789.09;5083259;28;20024;-64
2023/10/26 04:15:34;;;;;;;8.20;7.70;;;;;;;10.06;100.00;94802.38;5084527;28;20032;-63
2023/10/26 04:18:03;;;;;;;8.20;7.60;;;;;;;10.03;100.00;94828.03;5085506;28;20046;-64
2023/10/26 04:20:28;;;;;;;8.88;8.27;;;;;;;10.04;100.00;94853.34;5090998;28;20033;-64
2023/10/26 04:22:54;;;;;;;9.90;8.98;;;;;;;10.05;100.00;94869.94;5084381;28;20073;-64
2023/10/26 04:25:21;;;;;;;11.20;10.23;;;;;;;10.05;100.00;94869.94;5079061;28;20024;-63
2023/10/26 04:27:47;;;;;;;12.02;11.05;;;;;;;10.19;100.00;94881.66;5085472;28;20024;-63
2023/10/26 04:30:12;;;;;;;10.90;10.10;;;;;;;10.14;100.00;94876.06;5082682;28;20085;-63
2023/10/26 04:32:40;;;;;;;12.02;11.13;;;;;;;10.18;100.00;94880.84;5082191;28;20024;-63
2023/10/26 04:35:06;;;;;;;13.68;12.63;;;;;;;10.14;100.00;94883.97;5085960;28;20028;-63
2023/10/26 04:37:31;;;;;;;12.77;11.70;;;;;;;10.08;100.00;94890.66;5086220;28;20028;-63
2023/10/26 04:39:56;;;;;;;13.57;12.48;;;;;;;10.06;100.00;94887.38;5085810;28;20020;-63
2023/10/26 04:42:22;;;;;;;10.23;9.50;;;;;;;10.06;100.00;94899.69;5084819;28;20023;-64
2023/10/26 04:44:47;;;;;;;9.30;8.70;;;;;;;10.06;100.00;94931.25;5094284;28;20396;-64
2023/10/26 04:47:13;;;;;;;11.05;10.18;;;;;;;10.07;100.00;94931.09;5094597;28;20028;-64
2023/10/26 04:49:38;;;;;;;10.15;9.25;;;;;;;10.07;100.00;94943.44;5086879;28;20028;-63
2023/10/26 04:52:04;;;;;;;11.63;10.57;;;;;;;10.14;100.00;94944.44;5089915;28;20408;-64
2023/10/26 04:54:29;;;;;;;11.05;10.35;;;;;;;10.17;100.00;94941.50;5087454;28;20020;-64
2023/10/26 04:56:55;;;;;;;11.75;10.95;;;;;;;10.20;100.00;94949.06;5096065;28;20033;-63
2023/10/26 04:59:20;;;;;;;11.90;10.98;;;;;;;10.11;100.00;94942.13;5089938;28;20024;-63
2023/10/26 05:01:45;;;;;;;10.15;9.50;;;;;;;10.08;100.00;94952.97;5090406;28;20044;-63
2023/10/26 05:04:11;;;;;;;9.07;8.43;;;;;;;10.09;100.00;94968.59;5086563;28;20483;-64
2023/10/26 05:06:37;;;;;;;8.45;7.85;;;;;;;10.08;100.00;94958.22;5091328;28;20039;-63
2023/10/26 05:09:03;;;;;;;9.93;9.13;;;;;;;10.08;100.00;94959.03;5078479;28;20127;-64
2023/10/26 05:11:29;;;;;;;11.43;10.55;;;;;;;10.08;100.00;94963.50;5081961;28;20040;-63
2023/10/26 05:13:54;;;;;;;12.00;11.15;;;;;;;10.08;100.00;94974.00;5088983;28;20027;-64
2023/10/26 05:16:20;;;;;;;12.05;11.25;;;;;;;10.08;100.00;94982.72;5087017;28;20058;-63
2023/10/26 05:18:45;;;;;;;12.75;11.85;;;;;;;10.02;100.00;94997.31;5081428;28;20119;-63
2023/10/26 05:21:11;;;;;;;11.55;10.68;;;;;;;10.03;100.00;95008.66;5082221;28;20016;-64
2023/10/26 05:23:39;;;;;;;10.77;9.98;;;;;;;10.03;100.00;95003.41;5087547;27;20031;-63
2023/10/26 05:26:05;;;;;;;12.93;12.02;;;;;;;10.04;100.00;95019.00;5087560;28;20025;-63
2023/10/26 05:28:30;;;;;;;14.05;12.95;;;;;;;10.01;100.00;95368.28;5087976;28;20028;-64
2023/10/26 05:30:56;;;;;;;15.52;14.32;;;;;;;9.98;100.00;95377.28;5097439;28;20107;-63
2023/10/26 05:33:21;;;;;;;14.02;13.02;;;;;;;9.96;100.00;95387.13;5085412;28;20042;-64
2023/10/26 05:35:46;;;;;;;13.88;12.93;;;;;;;9.95;100.00;95396.00;5084734;28;20070;-63
2023/10/26 05:38:12;;;;;;;15.35;14.15;;;;;;;9.95;100.00;95413.59;5089773;28;20131;-64
2023/10/26 05:40:37;;;;;;;16.00;14.80;;;;;;;9.97;100.00;95422.97;5085515;28;20027;-64
2023/10/26 05:43:03;;;;;;;16.20;15.07;;;;;;;10.00;100.00;95435.81;5089570;28;20420;-64
2023/10/26 05:45:29;;;;;;;17.35;16.05;;;;;;;9.97;100.00;95446.63;5086061;28;20047;-64
2023/10/26 05:47:54;;;;;;;25.00;23.05;;;;;;;9.96;100.00;95449.44;5079932;28;20017;-64
2023/10/26 05:50:21;;;;;;;20.40;18.77;;;;;;;9.97;100.00;95457.16;5085278;28;20017;-63
2023/10/26 05:52:46;;;;;;;17.63;16.33;;;;;;;9.97;100.00;95477.38;5085186;28;20036;-64
2023/10/26 05:55:12;;;;;;;16.40;15.20;;;;;;;9.98;100.00;95500.88;5086956;28;20028;-63
2023/10/26 05:57:37;;;;;;;15.82;14.63;;;;;;;10.00;100.00;95498.13;5085396;28;20023;-63
2023/10/26 06:00:06;;;;;;;13.65;12.65;;;;;;;10.08;100.00;95500.06;5081614;28;22541;-63
2023/10/26 06:02:32;;;;;;;15.45;14.18;;;;;;;10.14;100.00;95510.78;5086557;28;20024;-63
2023/10/26 06:04:57;;;;;;;21.48;19.35;;;;;;;10.04;100.00;95513.47;5081928;28;20027;-64
2023/10/26 06:07:22;;;;;;;21.88;18.88;;;;;;;10.00;100.00;95521.81;5086924;28;20115;-64
2023/10/26 06:09:50;;;;;;;30.35;19.75;;;;;;;9.99;100.00;95542.00;5089598;28;20043;-64
2023/10/26 06:12:15;;;;;;;22.10;19.50;;;;;;;9.99;100.00;95547.25;5080768;28;20024;-64
2023/10/26 06:14:41;;;;;;;22.50;20.25;;;;;;;9.95;100.00;95550.34;5086653;28;20073;-64
2023/10/26 06:17:06;;;;;;;21.23;19.48;;;;;;;10.01;100.00;95558.47;5092972;28;20092;-64
2023/10/26 06:19:33;;;;;;;21.92;20.08;;;;;;;9.96;100.00;95565.13;5077801;28;20056;-63
2023/10/26 06:21:59;;;;;;;27.90;21.77;;;;;;;10.00;100.00;95585.72;5089726;28;20023;-64
2023/10/26 06:24:24;;;;;;;24.63;22.50;;;;;;;10.00;100.00;95587.56;5081036;28;20084;-63
2023/10/26 06:26:49;;;;;;;25.83;23.42;;;;;;;9.97;100.00;95598.34;5094188;28;22554;-64
2023/10/26 06:29:15;;;;;;;24.42;22.23;;;;;;;9.99;100.00;95612.19;5096307;28;20030;-64
2023/10/26 06:31:41;;;;;;;19.85;18.23;;;;;;;10.02;100.00;95617.97;5078548;28;20032;-64
2023/10/26 06:34:06;;;;;;;19.77;18.17;;;;;;;10.01;100.00;95615.50;5089648;28;20023;-64
2023/10/26 06:36:31;;;;;;;18.90;17.40;;;;;;;9.96;100.00;95628.25;5085907;28;20024;-64
2023/10/26 06:38:59;;;;;;;18.35;16.85;;;;;;;10.00;100.00;95625.19;5095013;28;20016;-64
2023/10/26 06:41:24;;;;;;;16.63;15.32;;;;;;;10.02;100.00;95627.69;5081706;28;20023;-64
2023/10/26 06:43:51;;;;;;;17.25;15.95;;;;;;;9.97;100.00;95622.03;5084774;28;20020;-64
2023/10/26 06:46:17;;;;;;;19.10;17.48;;;;;;;10.01;100.00;95629.47;5087093;28;20024;-64
2023/10/26 06:48:42;;;;;;;17.55;16.05;;;;;;;10.00;100.00;95624.38;5085812;28;20027;-64
2023/10/26 06:51:07;;;;;;;16.90;15.43;;;;;;;9.99;100.00;95614.81;5086368;28;20091;-64
2023/10/26 06:53:33;;;;;;;16.50;15.20;;;;;;;10.00;100.00;95608.59;5077925;28;20035;-64
2023/10/26 06:55:58;;;;;;;16.80;15.52;;;;;;;10.02;100.00;95619.78;5085182;28;20076;-64
2023/10/26 06:58:24;;;;;;;18.05;16.65;;;;;;;10.13;100.00;95643.31;5086115;28;20024;-64
2023/10/26 07:00:49;;;;;;;18.77;17.17;;;;;;;10.06;100.00;95633.47;5079366;28;20075;-64
2023/10/26 07:03:15;;;;;;;18.23;16.73;;;;;;;10.08;100.00;95623.69;5086463;28;20028;-64
2023/10/26 07:05:40;;;;;;;18.38;16.77;;;;;;;10.09;100.00;95633.22;5086126;28;20020;-64
2023/10/26 07:08:06;;;;;;;18.10;16.70;;;;;;;10.15;100.00;95640.53;5092152;28;20026;-64
2023/10/26 07:10:31;;;;;;;17.75;16.30;;;;;;;10.17;100.00;95641.22;5083098;28;20039;-64
2023/10/26 07:12:57;;;;;;;16.20;14.25;;;;;;;10.20;100.00;95630.41;5087822;28;20036;-64
2023/10/26 07:15:23;;;;;;;16.10;14.80;;;;;;;10.24;100.00;95665.19;5089429;28;20023;-64
2023/10/26 07:17:48;;;;;;;14.98;13.68;;;;;;;10.29;100.00;95681.38;5095881;28;20024;-64
2023/10/26 07:20:14;;;;;;;14.15;13.15;;;;;;;10.30;100.00;95673.34;5091567;28;20015;-64
2023/10/26 07:22:42;;;;;;;13.07;11.95;;;;;;;10.35;100.00;95693.97;5096291;28;20016;-64
2023/10/26 07:25:08;;;;;;;12.02;11.13;;;;;;;10.38;100.00;95712.09;5100183;28;20095;-64
2023/10/26 07:27:33;;;;;;;20.77;19.02;;;;;;;10.41;100.00;95719.78;5093086;28;20040;-64
2023/10/26 07:29:59;;;;;;;19.70;18.10;;;;;;;10.39;100.00;95718.22;5095220;28;20024;-64
2023/10/26 07:32:25;;;;;;;20.25;18.55;;;;;;;10.42;100.00;95707.44;5082522;28;20020;-64
2023/10/26 07:34:51;;;;;;;21.27;19.52;;;;;;;10.38;100.00;95717.34;5088148;28;20020;-64
2023/10/26 07:37:17;;;;;;;22.27;20.33;;;;;;;10.43;100.00;95727.50;5079665;28;20045;-64
2023/10/26 07:39:42;;;;;;;22.45;20.60;;;;;;;10.43;100.00;95740.66;5087774;28;20503;-64
2023/10/26 07:42:07;;;;;;;22.90;21.00;;;;;;;10.38;100.00;95750.75;5081528;28;20015;-64
2023/10/26 07:44:33;;;;;;;21.75;19.90;;;;;;;10.38;100.00;95750.75;5079564;28;20044;-64
2023/10/26 07:46:59;;;;;;;20.40;18.70;;;;;;;10.37;100.00;95760.44;5094419;28;20527;-64
2023/10/26 07:49:24;;;;;;;20.13;18.60;;;;;;;10.39;100.00;95766.44;5092860;28;20126;-64
2023/10/26 07:51:50;;;;;;;21.42;19.58;;;;;;;10.47;100.00;95771.00;5088605;28;20020;-64
2023/10/26 07:54:17;;;;;;;21.35;19.60;;;;;;;10.47;100.00;95784.16;5081808;28;20029;-64
2023/10/26 07:56:43;;;;;;;19.55;18.15;;;;;;;10.54;100.00;95784.44;5085012;28;20025;-64
2023/10/26 07:59:08;;;;;;;19.63;17.92;;;;;;;10.39;100.00;95781.38;5082520;28;20024;-64
2023/10/26 08:01:34;;;;;;;19.63;18.05;;;;;;;10.37;100.00;95778.88;5080882;28;20443;-64
2023/10/26 08:03:59;;;;;;;18.48;16.88;;;;;;;10.32;100.00;95787.19;5092033;28;20090;-64
2023/10/26 08:06:24;;;;;;;17.08;15.82;;;;;;;10.31;100.00;95779.44;5092390;28;20028;-64
2023/10/26 08:08:51;;;;;;;17.05;15.60;;;;;;;10.35;100.00;95774.72;5085296;28;20044;-64
2023/10/26 08:11:17;;;;;;;17.45;16.15;;;;;;;10.38;100.00;95763.91;5098372;28;20099;-64
2023/10/26 08:13:43;;;;;;;18.08;16.70;;;;;;;10.41;100.00;95755.78;5085758;28;20601;-64
2023/10/26 08:16:09;;;;;;;18.30;16.80;;;;;;;10.44;100.00;95763.38;5091796;28;20015;-64
2023/10/26 08:18:35;;;;;;;17.88;16.58;;;;;;;10.44;100.00;95763.38;5086444;28;20039;-64
2023/10/26 08:21:03;;;;;;;18.38;16.88;;;;;;;10.45;100.00;95765.03;5089797;28;20103;-64
2023/10/26 08:23:29;;;;;;;17.38;16.15;;;;;;;10.49;100.00;95768.25;5090907;28;20024;-64
2023/10/26 08:25:56;;;;;;;17.35;15.85;;;;;;;10.53;100.00;95762.56;5089630;28;20053;-65
2023/10/26 08:28:21;;;;;;;18.17;16.83;;;;;;;10.55;100.00;95772.94;5090736;28;20040;-65
2023/10/26 08:30:47;;;;;;;18.80;17.20;;;;;;;10.56;100.00;95766.69;5087683;28;20024;-65
2023/10/26 08:33:13;;;;;;;11.05;10.35;;;;;;;10.62;100.00;95760.06;5088640;28;20047;-64
2023/10/26 08:35:41;;;;;;;9.65;8.77;;;;;;;10.70;100.00;95760.16;5091413;28;20028;-64
2023/10/26 08:38:06;;;;;;;10.18;9.38;;;;;;;10.80;100.00;95754.88;5086786;28;20085;-65
2023/10/26 08:40:33;;;;;;;10.93;10.02;;;;;;;10.82;100.00;95755.56;5090422;28;20099;-64
2023/10/26 08:43:00;;;;;;;11.45;10.40;;;;;;;10.83;100.00;95750.19;5093926;28;20491;-64
2023/10/26 08:45:27;;;;;;;12.38;11.38;;;;;;;11.00;100.00;95742.53;5082173;28;20031;-64
2023/10/26 08:47:55;;;;;;;17.17;15.77;;;;;;;10.94;100.00;95745.69;5086342;28;20047;-65
2023/10/26 08:50:22;;;;;;;18.65;17.15;;;;;;;10.81;100.00;95740.75;5087667;28;20028;-65
2023/10/26 08:52:48;;;;;;;22.02;19.95;;;;;;;10.67;100.00;95748.13;5085479;28;20146;-64
2023/10/26 08:55:14;;;;;;;23.42;21.27;;;;;;;10.53;100.00;95749.41;5089160;28;20349;-64
2023/10/26 08:57:54;;;;;;;25.73;23.25;;;;;;;10.48;100.00;95738.44;5084283;28;20012;-65
2023/10/26 09:00:19;;;;;;;24.75;22.25;;;;;;;10.45;100.00;95730.84;5092090;28;20099;-64
2023/10/26 09:02:47;;;;;;;25.05;22.65;;;;;;;10.45;100.00;95741.34;5082839;28;20059;-64
2023/10/26 09:05:13;;;;;;;21.92;20.00;;;;;;;10.51;100.00;95746.09;5086713;28;20024;-64
2023/10/26 09:07:39;;;;;;;21.73;19.77;;;;;;;10.54;100.00;95758.97;5080641;28;20026;-64
2023/10/26 09:10:05;;;;;;;23.02;20.92;;;;;;;10.57;100.00;95773.63;5086315;28;20109;-64
2023/10/26 09:12:30;;;;;;;24.05;21.70;;;;;;;10.58;100.00;95791.09;5089106;28;20070;-64
2023/10/26 09:15:03;;;;;;;22.48;20.63;;;;;;;10.56;100.00;95788.59;5087061;28;20032;-65
2023/10/26 09:17:30;;;;;;;18.38;16.75;;;;;;;10.71;100.00;95789.00;5084659;28;20027;-64
2023/10/26 09:19:57;;;;;;;17.10;15.65;;;;;;;10.73;100.00;95788.88;5082052;28;20016;-64
2023/10/26 09:22:40;;;;;;;19.92;18.13;;;;;;;10.85;100.00;95792.19;5083703;28;20086;-64
2023/10/26 09:25:07;;;;;;;21.05;19.17;;;;;;;10.84;100.00;95778.19;5084693;28;20027;-64
2023/10/26 09:27:34;;;;;;;23.33;21.25;;;;;;;10.75;100.00;95779.84;5096079;28;20020;-65
2023/10/26 09:29:59;;;;;;;22.73;20.77;;;;;;;10.78;100.00;95778.75;5091615;28;20020;-65
2023/10/26 09:32:32;;;;;;;21.77;19.80;;;;;;;10.67;100.00;95778.88;5088691;28;20028;-65
2023/10/26 09:34:57;;;;;;;22.85;20.65;;;;;;;10.58;100.00;95776.13;5090888;28;20035;-65
2023/10/26 09:37:23;;;;;;;40.80;37.33;;;;;;;10.60;100.00;95779.44;5086854;28;20377;-65
2023/10/26 09:39:50;;;;;;;22.23;20.23;;;;;;;10.59;100.00;95779.59;5082480;28;20009;-65
2023/10/26 09:42:16;;;;;;;19.08;17.58;;;;;;;10.58;100.00;95797.19;5092391;28;20038;-65
2023/10/26 09:44:41;;;;;;;16.10;14.80;;;;;;;10.65;100.00;95802.75;5094957;28;20016;-64
2023/10/26 09:47:08;;;;;;;16.23;14.80;;;;;;;10.67;100.00;95805.22;5085261;28;20388;-64
2023/10/26 09:49:33;;;;;;;14.38;13.10;;;;;;;10.66;100.00;95820.19;5090577;28;20830;-64
2023/10/26 09:51:59;;;;;;;13.60;12.50;;;;;;;10.69;100.00;95819.06;5090233;28;20073;-64
2023/10/26 09:54:31;;;;;;;13.85;12.70;;;;;;;10.73;100.00;95821.28;5087746;28;20103;-64
2023/10/26 09:57:15;;;;;;;15.93;14.25;;;;;;;10.75;100.00;95823.78;5092147;28;20024;-64
2023/10/26 09:59:41;;;;;;;17.58;15.98;;;;;;;10.74;100.00;95827.41;5088191;28;20012;-64
2023/10/26 10:02:16;;;;;;;16.00;14.70;;;;;;;10.75;100.00;95818.53;5088870;28;20027;-64
2023/10/26 10:04:44;;;;;;;13.85;12.65;;;;;;;10.77;100.00;95813.94;5085009;28;20371;-64
2023/10/26 10:07:15;;;;;;;14.90;13.60;;;;;;;10.80;100.00;95818.94;5086425;28;20523;-64
2023/10/26 10:10:03;;;;;;;15.32;14.13;;;;;;;10.81;100.00;95820.59;5083478;28;20047;-65
2023/10/26 10:12:28;;;;;;;15.50;14.30;;;;;;;10.82;100.00;95822.25;5082460;28;20028;-65
2023/10/26 10:14:57;;;;;;;17.15;15.85;;;;;;;10.83;100.00;95823.91;5086229;28;20358;-64
2023/10/26 10:17:42;;;;;;;18.25;16.73;;;;;;;10.87;100.00;95821.84;5089401;28;20036;-64
2023/10/26 10:20:14;;;;;;;16.70;15.30;;;;;;;10.94;100.00;95816.81;5086829;28;20016;-65
2023/10/26 10:22:58;;;;;;;16.70;15.13;;;;;;;11.02;100.00;95803.78;5079730;28;20024;-65
2023/10/26 10:25:49;;;;;;;13.88;12.68;;;;;;;11.08;100.00;95826.94;5088180;28;20071;-64
2023/10/26 10:28:15;;;;;;;13.43;12.23;;;;;;;11.03;100.00;95822.06;5083322;28;20377;-65
2023/10/26 10:30:59;;;;;;;15.10;13.57;;;;;;;11.04;100.00;95822.91;5077869;28;20093;-65
2023/10/26 10:33:28;;;;;;;16.13;14.70;;;;;;;11.06;100.00;95817.53;5080452;28;20024;-65
2023/10/26 10:36:00;;;;;;;16.40;15.00;;;;;;;11.06;100.00;95814.88;5081535;28;20027;-65
2023/10/26 10:38:25;;;;;;;14.20;13.00;;;;;;;11.03;100.00;95816.00;5091795;28;20074;-65
2023/10/26 10:40:53;;;;;;;14.63;13.43;;;;;;;11.03;100.00;95801.00;5084732;28;20020;-64
2023/10/26 10:43:30;;;;;;;12.15;11.15;;;;;;;11.04;100.00;95800.03;5079666;28;20028;-64
2023/10/26 10:45:55;;;;;;;9.63;8.82;;;;;;;11.05;100.00;95790.34;5088660;28;20446;-64
2023/10/26 10:48:21;;;;;;;9.85;9.05;;;;;;;11.09;100.00;95789.06;5082299;28;21054;-64
2023/10/26 10:50:50;;;;;;;11.90;10.90;;;;;;;11.15;100.00;95782.41;5086954;28;20082;-64
2023/10/26 10:53:16;;;;;;;11.85;10.80;;;;;;;11.21;100.00;95771.28;5091884;28;20032;-64
2023/10/26 10:55:43;;;;;;;13.02;11.70;;;;;;;11.26;100.00;95757.69;5082512;28;20032;-64
2023/10/26 10:58:09;;;;;;;13.07;12.00;;;;;;;11.32;100.00;95757.09;5086774;28;20024;-64
2023/10/26 11:00:40;;;;;;;11.15;10.15;;;;;;;11.38;100.00;95732.78;5079209;28;20028;-64
2023/10/26 11:03:05;;;;;;;8.63;8.02;;;;;;;11.36;100.00;95723.38;5096314;28;20062;-64
2023/10/26 11:05:41;;;;;;;9.60;8.80;;;;;;;11.38;100.00;95710.88;5085464;28;20209;-64
2023/10/26 11:08:08;;;;;;;7.72;7.03;;;;;;;11.46;100.00;95687.25;5084632;28;20027;-64
2023/10/26 11:10:36;;;;;;;6.78;6.18;;;;;;;11.50;100.00;95680.72;5082030;28;20023;-64